Time;durP1;ratioP1;P1;durP2;ratioP2;P2;SDS_P1;SDS_P2;PMS_P1;PMS_P2;Temp;Humidity;BMP_temperature;BMP_pressure;BME280_temperature;BME280_humidity;BME280_pressure;Samples;Min_cycle;Max_cycle;Signal;HPM_P1;HPM_P2
2022/12/10 00:00:00;;;;;;;50.47;27.27;;;1.00;97.10;;;;;;5015980;28;20678;-81
2022/12/10 00:02:26;;;;;;;48.97;26.93;;;1.00;98.60;;;;;;5001736;28;20178;-79
2022/12/10 00:04:53;;;;;;;53.97;28.07;;;1.00;99.90;;;;;;5011306;28;20186;-81
2022/12/10 00:07:21;;;;;;;52.57;27.27;;;1.10;99.90;;;;;;5018040;28;20198;-80
2022/12/10 00:09:52;;;;;;;50.63;27.53;;;1.30;99.90;;;;;;5011636;28;20178;-82
2022/12/10 00:12:19;;;;;;;44.73;26.50;;;1.40;99.90;;;;;;4991993;28;20205;-81
2022/12/10 00:14:48;;;;;;;47.63;26.70;;;1.20;99.90;;;;;;5002166;28;20673;-83
2022/12/10 00:17:14;;;;;;;42.47;25.20;;;1.30;99.90;;;;;;5007800;28;20251;-81
2022/12/10 00:19:40;;;;;;;45.27;26.40;;;1.30;99.90;;;;;;5031759;28;20159;-79
2022/12/10 00:22:09;;;;;;;45.80;26.10;;;1.50;98.50;;;;;;5018079;28;20193;-76
2022/12/10 00:24:35;;;;;;;53.80;28.50;;;1.40;97.10;;;;;;5037661;28;20178;-81
2022/12/10 00:27:04;;;;;;;54.80;28.10;;;1.50;96.60;;;;;;5035501;28;20159;-78
2022/12/10 00:29:32;;;;;;;51.17;28.57;;;1.50;95.90;;;;;;5035744;28;20182;-78
2022/12/10 00:32:06;;;;;;;52.20;28.97;;;1.40;95.20;;;;;;5028528;28;20170;-80
2022/12/10 00:34:35;;;;;;;56.07;30.00;;;1.20;95.40;;;;;;5017527;28;20210;-78
2022/12/10 00:37:01;;;;;;;52.23;29.30;;;1.20;96.30;;;;;;5016406;28;20158;-81
2022/12/10 00:39:27;;;;;;;60.70;30.53;;;1.20;96.70;;;;;;5014629;28;20243;-79
2022/12/10 00:41:52;;;;;;;54.10;29.53;;;1.30;96.90;;;;;;5013676;28;20167;-79
2022/12/10 00:44:18;;;;;;;55.43;32.00;;;1.30;96.60;;;;;;5013738;28;20178;-79
2022/12/10 00:46:44;;;;;;;52.70;29.57;;;1.20;96.70;;;;;;5013253;28;20271;-80
2022/12/10 00:49:11;;;;;;;56.23;32.33;;;1.20;97.60;;;;;;5013575;28;20679;-80
2022/12/10 00:51:37;;;;;;;57.07;30.20;;;1.20;97.90;;;;;;5012742;28;20193;-79
2022/12/10 00:54:03;;;;;;;57.00;30.83;;;1.10;98.70;;;;;;4998040;28;20202;-81
2022/12/10 00:56:32;;;;;;;48.80;26.67;;;1.00;99.70;;;;;;4999688;28;20204;-80
2022/12/10 00:58:58;;;;;;;52.30;28.07;;;1.00;99.90;;;;;;5016436;28;20240;-82
2022/12/10 01:01:32;;;;;;;50.73;28.40;;;1.00;99.10;;;;;;5017792;28;20205;-81
2022/12/10 01:04:00;;;;;;;54.97;31.93;;;1.10;99.10;;;;;;4997801;28;20179;-80
2022/12/10 01:06:35;;;;;;;56.03;30.03;;;1.10;98.50;;;;;;5015915;28;20178;-80
2022/12/10 01:09:05;;;;;;;56.80;31.33;;;1.10;98.50;;;;;;5018415;28;20174;-79
2022/12/10 01:11:36;;;;;;;57.00;31.10;;;1.10;98.60;;;;;;5019533;28;20220;-80
2022/12/10 01:14:03;;;;;;;54.27;32.23;;;1.10;99.10;;;;;;4998470;28;20206;-78
2022/12/10 01:16:29;;;;;;;62.23;31.27;;;1.20;99.40;;;;;;5016140;28;20210;-80
2022/12/10 01:18:57;;;;;;;56.27;31.77;;;1.20;99.40;;;;;;5015644;28;20197;-79
2022/12/10 01:21:23;;;;;;;52.80;29.67;;;1.20;99.80;;;;;;4998458;28;20181;-79
2022/12/10 01:23:51;;;;;;;60.43;32.00;;;1.20;99.90;;;;;;5016557;28;20163;-79
2022/12/10 01:26:20;;;;;;;51.77;32.23;;;1.30;99.90;;;;;;5016917;28;20170;-79
2022/12/10 01:28:47;;;;;;;53.47;31.37;;;1.40;99.90;;;;;;5014097;28;20213;-79
2022/12/10 01:31:14;;;;;;;51.33;29.93;;;1.40;99.90;;;;;;5015038;28;20170;-79
2022/12/10 01:33:40;;;;;;;60.27;32.70;;;1.50;99.50;;;;;;4997923;28;20245;-77
2022/12/10 01:36:19;;;;;;;48.23;29.13;;;1.40;99.30;;;;;;4998233;28;20182;-78
2022/12/10 01:38:45;;;;;;;51.97;30.00;;;1.20;98.90;;;;;;5015226;28;20190;-80
2022/12/10 01:41:25;;;;;;;52.13;31.67;;;1.10;99.50;;;;;;5015503;28;20197;-79
2022/12/10 01:44:02;;;;;;;54.40;31.37;;;1.10;99.90;;;;;;5015684;28;20688;-79
2022/12/10 01:46:34;;;;;;;53.40;30.67;;;1.20;99.90;;;;;;5015925;28;20165;-82
2022/12/10 01:49:03;;;;;;;48.73;30.17;;;1.40;99.90;;;;;;5014554;28;20167;-80
2022/12/10 01:51:33;;;;;;;48.93;29.27;;;1.50;99.90;;;;;;5015534;28;20721;-80
2022/12/10 01:54:00;;;;;;;50.77;30.73;;;1.20;98.40;;;;;;4997703;28;20182;-80
2022/12/10 01:56:25;;;;;;;51.00;31.67;;;1.10;99.50;;;;;;5015382;28;20507;-81
2022/12/10 01:58:54;;;;;;;52.27;31.83;;;1.20;99.90;;;;;;4997507;28;20174;-80
2022/12/10 02:01:25;;;;;;;50.30;30.27;;;1.20;99.90;;;;;;5015301;28;20212;-82
2022/12/10 02:04:05;;;;;;;50.27;30.70;;;1.10;98.90;;;;;;4997370;28;20202;-79
2022/12/10 02:06:35;;;;;;;54.90;31.33;;;1.00;99.10;;;;;;4996398;28;20174;-81
2022/12/10 02:09:24;;;;;;;56.30;31.97;;;1.00;99.70;;;;;;4997730;28;20182;-80
2022/12/10 02:12:02;;;;;;;58.67;33.00;;;1.00;98.70;;;;;;4976321;28;20257;-81
2022/12/10 02:14:38;;;;;;;56.37;32.63;;;0.90;98.20;;;;;;4997202;28;20206;-79
2022/12/10 02:17:19;;;;;;;56.90;31.87;;;0.90;99.40;;;;;;5014355;28;20189;-80
2022/12/10 02:20:18;;;;;;;57.20;33.30;;;0.80;99.10;;;;;;5014581;28;20166;-81
2022/12/10 02:22:57;;;;;;;59.20;33.23;;;0.80;99.90;;;;;;5015361;28;20644;-79
2022/12/10 02:25:36;;;;;;;59.13;33.40;;;0.60;99.90;;;;;;5017241;28;20170;-78
2022/12/10 02:28:13;;;;;;;63.43;33.80;;;0.60;99.90;;;;;;5027461;28;20169;-78
2022/12/10 02:30:42;;;;;;;61.30;32.87;;;0.60;99.90;;;;;;5015888;28;20182;-77
2022/12/10 02:33:08;;;;;;;61.40;32.53;;;0.60;99.90;;;;;;5038723;28;20147;-79
2022/12/10 02:35:38;;;;;;;58.20;32.67;;;0.60;99.90;;;;;;5012309;28;20567;-79
2022/12/10 02:38:23;;;;;;;57.27;32.67;;;0.60;99.90;;;;;;5018259;28;20173;-80
2022/12/10 02:40:53;;;;;;;55.17;32.60;;;0.40;99.90;;;;;;4997867;28;20226;-80
2022/12/10 02:43:21;;;;;;;60.57;32.83;;;0.30;99.90;;;;;;5014921;28;20181;-79
2022/12/10 02:45:48;;;;;;;58.83;34.23;;;0.30;99.90;;;;;;4999920;28;20174;-83
2022/12/10 02:48:14;;;;;;;58.87;33.47;;;0.40;99.90;;;;;;5005597;28;20198;-77
2022/12/10 02:50:40;;;;;;;59.63;34.30;;;0.50;99.90;;;;;;5008626;28;20206;-78
2022/12/10 02:53:06;;;;;;;62.60;34.63;;;0.60;99.90;;;;;;5030107;28;20181;-80
2022/12/10 02:55:59;;;;;;;62.10;35.23;;;0.60;99.90;;;;;;5034695;28;20248;-79
2022/12/10 02:58:36;;;;;;;68.80;35.40;;;0.70;99.90;;;;;;4988538;28;20865;-79
2022/12/10 03:01:22;;;;;;;75.53;38.80;;;0.80;99.90;;;;;;5014662;28;20170;-79
2022/12/10 03:03:59;;;;;;;70.67;36.87;;;0.80;99.90;;;;;;5014846;28;20168;-80
2022/12/10 03:06:54;;;;;;;73.63;36.73;;;0.70;99.90;;;;;;5014032;28;20568;-81
2022/12/10 03:09:36;;;;;;;78.47;37.73;;;0.60;99.90;;;;;;5002576;28;20189;-80
2022/12/10 03:12:09;;;;;;;70.07;35.37;;;0.60;99.90;;;;;;5013385;28;20177;-78
2022/12/10 03:14:36;;;;;;;73.17;38.03;;;0.60;99.90;;;;;;5013616;28;20685;-80
2022/12/10 03:17:04;;;;;;;69.90;35.87;;;0.60;99.90;;;;;;5012994;28;20616;-79
2022/12/10 03:19:37;;;;;;;71.60;37.50;;;0.50;99.90;;;;;;4989695;28;20179;-80
2022/12/10 03:22:05;;;;;;;75.17;37.67;;;0.60;99.90;;;;;;5004921;28;20233;-77
2022/12/10 03:24:32;;;;;;;70.87;36.73;;;0.80;99.90;;;;;;4993015;28;20586;-77
2022/12/10 03:26:58;;;;;;;75.57;37.30;;;0.80;99.90;;;;;;5016182;28;20179;-79
2022/12/10 03:29:29;;;;;;;75.43;38.23;;;0.80;99.90;;;;;;4986961;28;20187;-78
2022/12/10 03:32:00;;;;;;;68.60;36.77;;;0.90;99.90;;;;;;4977801;28;20270;-80
2022/12/10 03:34:26;;;;;;;73.93;39.37;;;1.00;99.90;;;;;;4976543;28;20257;-79
2022/12/10 03:36:52;;;;;;;76.50;36.27;;;1.00;99.90;;;;;;4975484;28;20622;-80
2022/12/10 03:39:18;;;;;;;71.93;37.13;;;1.00;99.90;;;;;;4976019;28;20675;-80
2022/12/10 03:41:44;;;;;;;70.80;35.37;;;0.90;99.90;;;;;;4976532;28;20179;-79
2022/12/10 03:44:09;;;;;;;71.57;36.47;;;0.90;99.90;;;;;;4993544;28;20567;-80
2022/12/10 03:46:35;;;;;;;71.53;35.73;;;0.80;99.90;;;;;;4993284;28;20175;-79
2022/12/10 03:49:02;;;;;;;74.53;37.57;;;0.80;99.90;;;;;;4993632;28;20167;-79
2022/12/10 03:51:28;;;;;;;72.47;34.10;;;1.00;99.90;;;;;;4976278;28;20183;-79
2022/12/10 03:53:53;;;;;;;77.30;37.70;;;1.00;99.90;;;;;;4975297;28;20241;-80
2022/12/10 03:56:20;;;;;;;70.83;37.10;;;1.00;99.90;;;;;;4992074;28;20199;-78
2022/12/10 03:58:47;;;;;;;76.33;36.63;;;1.00;99.90;;;;;;4994998;28;20170;-79
2022/12/10 04:01:13;;;;;;;81.63;37.63;;;1.10;99.90;;;;;;4997526;28;20174;-79
2022/12/10 04:03:40;;;;;;;91.67;39.70;;;0.80;99.90;;;;;;4976988;28;20229;-80
2022/12/10 04:06:09;;;;;;;76.50;36.07;;;0.90;99.90;;;;;;4993922;28;20233;-80
2022/12/10 04:08:35;;;;;;;77.50;35.77;;;0.80;99.90;;;;;;4993786;28;20628;-80
2022/12/10 04:11:10;;;;;;;86.17;37.10;;;0.70;99.90;;;;;;4975897;28;20191;-80
2022/12/10 04:16:27;;;;;;;87.23;37.97;;;0.80;99.90;;;;;;4993826;28;20202;-79
2022/12/10 04:19:00;;;;;;;81.03;37.73;;;1.00;99.90;;;;;;4993804;28;20243;-81
2022/12/10 04:27:01;;;;;;;72.53;35.27;;;1.20;99.90;;;;;;4993535;28;20233;-81
2022/12/10 04:29:29;;;;;;;68.90;33.07;;;1.30;99.90;;;;;;4996009;28;20167;-81
2022/12/10 04:31:56;;;;;;;67.90;33.17;;;1.20;99.90;;;;;;4996944;28;20243;-78
2022/12/10 04:34:21;;;;;;;72.63;34.27;;;1.20;99.90;;;;;;4996569;28;20198;-80
2022/12/10 04:36:48;;;;;;;73.80;35.67;;;1.00;99.90;;;;;;4996994;28;20229;-79
2022/12/10 04:39:13;;;;;;;80.17;36.77;;;0.90;99.90;;;;;;4997364;28;20697;-79
2022/12/10 04:41:44;;;;;;;93.70;37.93;;;0.80;99.90;;;;;;4997783;28;20159;-80
2022/12/10 04:44:10;;;;;;;84.07;36.13;;;0.80;99.90;;;;;;4996322;28;20171;-81
2022/12/10 04:46:37;;;;;;;80.87;35.40;;;0.60;99.90;;;;;;4980250;28;20174;-81
2022/12/10 04:49:04;;;;;;;85.80;35.33;;;0.60;99.90;;;;;;4979398;28;20175;-81
2022/12/10 04:51:31;;;;;;;81.20;35.37;;;0.50;99.90;;;;;;4980174;28;20655;-81
2022/12/10 04:53:58;;;;;;;81.97;35.67;;;0.40;99.90;;;;;;4980247;28;20189;-81
2022/12/10 04:56:24;;;;;;;74.77;34.17;;;0.50;99.90;;;;;;4978816;28;20190;-81
2022/12/10 04:58:49;;;;;;;80.37;35.20;;;0.60;99.90;;;;;;4997288;28;20309;-81
2022/12/10 05:01:15;;;;;;;83.17;37.40;;;0.60;99.90;;;;;;4997801;28;20198;-81
2022/12/10 05:03:42;;;;;;;84.80;35.70;;;0.70;99.90;;;;;;4997795;28;20170;-81
2022/12/10 05:06:10;;;;;;;85.63;35.37;;;0.70;99.90;;;;;;4997241;28;20174;-78
2022/12/10 05:08:37;;;;;;;78.20;33.33;;;0.50;99.90;;;;;;4991862;28;20181;-78
2022/12/10 05:11:23;;;;;;;80.17;33.20;;;0.60;99.90;;;;;;5010915;28;20179;-79
2022/12/10 05:13:49;;;;;;;85.17;33.73;;;0.70;99.90;;;;;;4988196;28;20174;-78
2022/12/10 05:16:17;;;;;;;81.07;33.67;;;0.50;99.90;;;;;;5016011;28;20167;-80
2022/12/10 05:18:43;;;;;;;82.53;35.03;;;0.50;99.90;;;;;;5018285;28;20190;-78
2022/12/10 05:21:14;;;;;;;77.67;34.53;;;0.40;99.90;;;;;;5017577;28;20202;-79
2022/12/10 05:23:46;;;;;;;85.67;35.37;;;0.40;99.90;;;;;;4985663;28;20187;-80
2022/12/10 05:26:19;;;;;;;81.60;35.70;;;0.40;99.90;;;;;;4988910;28;20172;-77
2022/12/10 05:28:53;;;;;;;84.93;34.27;;;0.50;99.90;;;;;;4997337;28;20179;-79
2022/12/10 05:31:21;;;;;;;72.27;33.43;;;0.40;99.90;;;;;;4984651;28;20179;-78
2022/12/10 05:33:47;;;;;;;73.40;33.27;;;0.50;99.90;;;;;;4998581;28;20194;-78
2022/12/10 05:36:18;;;;;;;72.37;31.87;;;0.60;99.90;;;;;;5016193;28;20211;-80
2022/12/10 05:38:45;;;;;;;73.53;33.30;;;0.60;99.90;;;;;;4996325;28;20195;-79
2022/12/10 05:41:24;;;;;;;75.83;34.33;;;0.50;99.90;;;;;;4997638;28;20624;-80
2022/12/10 05:43:56;;;;;;;72.90;33.20;;;0.60;99.90;;;;;;4997922;28;20705;-80
2022/12/10 05:46:25;;;;;;;71.23;33.63;;;0.60;99.90;;;;;;4996351;28;20655;-79
2022/12/10 05:48:53;;;;;;;68.33;30.90;;;0.60;99.90;;;;;;5000374;28;20152;-80
2022/12/10 05:51:21;;;;;;;67.67;30.03;;;0.50;99.90;;;;;;4996860;28;20249;-82
2022/12/10 05:53:47;;;;;;;67.30;29.57;;;0.30;99.90;;;;;;4997939;28;20182;-80
2022/12/10 05:56:18;;;;;;;70.03;31.10;;;0.30;99.90;;;;;;4996503;28;20232;-80
2022/12/10 05:58:45;;;;;;;74.07;30.50;;;0.30;99.90;;;;;;4978692;28;20181;-78
2022/12/10 06:01:14;;;;;;;69.17;30.80;;;0.40;99.90;;;;;;4978506;28;20198;-79
2022/12/10 06:03:41;;;;;;;64.53;31.13;;;0.40;99.90;;;;;;4978076;28;20207;-79
2022/12/10 06:06:07;;;;;;;71.17;32.20;;;0.40;99.90;;;;;;4980121;28;20171;-79
2022/12/10 06:08:34;;;;;;;71.50;30.83;;;0.50;99.90;;;;;;4979729;28;20185;-80
2022/12/10 06:11:10;;;;;;;69.13;30.33;;;0.50;99.90;;;;;;5000816;28;20203;-79
2022/12/10 06:13:37;;;;;;;69.90;28.77;;;0.50;99.90;;;;;;4984038;28;20162;-79
2022/12/10 06:16:08;;;;;;;104.07;30.00;;;0.60;99.90;;;;;;4993408;28;20217;-77
2022/12/10 06:18:34;;;;;;;124.07;30.73;;;0.60;99.90;;;;;;5009051;28;20225;-78
2022/12/10 06:21:08;;;;;;;80.10;30.97;;;0.50;99.90;;;;;;5010306;28;20183;-78
2022/12/10 06:23:35;;;;;;;97.70;31.57;;;0.50;99.90;;;;;;4991123;28;20179;-79
2022/12/10 06:26:17;;;;;;;113.27;33.53;;;0.40;99.90;;;;;;4981377;28;20179;-79
2022/12/10 06:28:45;;;;;;;80.90;30.03;;;0.40;99.90;;;;;;4977391;28;20605;-79
2022/12/10 06:31:11;;;;;;;93.20;32.10;;;0.50;99.90;;;;;;4977488;28;20171;-79
2022/12/10 06:33:38;;;;;;;108.50;33.37;;;0.50;99.90;;;;;;4998339;28;20171;-79
2022/12/10 06:36:06;;;;;;;109.80;35.63;;;0.50;99.90;;;;;;4980904;28;20218;-79
2022/12/10 06:38:33;;;;;;;95.00;34.77;;;0.40;99.90;;;;;;4979103;28;20687;-79
2022/12/10 06:40:59;;;;;;;121.27;36.93;;;0.50;99.90;;;;;;4996342;28;20314;-79
2022/12/10 06:43:30;;;;;;;92.30;35.43;;;0.40;99.90;;;;;;4995936;28;20659;-80
2022/12/10 06:45:56;;;;;;;95.60;37.50;;;0.30;99.90;;;;;;5001540;28;20226;-84
2022/12/10 06:48:22;;;;;;;90.00;34.73;;;0.20;99.90;;;;;;4984881;28;20190;-80
2022/12/10 06:50:48;;;;;;;92.97;32.43;;;0.20;99.90;;;;;;5006646;28;20210;-80
2022/12/10 06:53:22;;;;;;;129.57;33.80;;;0.20;99.90;;;;;;4999618;28;20639;-78
2022/12/10 06:55:48;;;;;;;118.50;35.87;;;0.30;99.90;;;;;;4983633;28;20220;-79
2022/12/10 06:58:15;;;;;;;104.73;34.50;;;0.30;99.90;;;;;;4981140;28;20203;-81
2022/12/10 07:00:42;;;;;;;124.17;35.70;;;0.30;99.90;;;;;;4996625;28;20198;-79
2022/12/10 07:03:08;;;;;;;206.53;38.30;;;0.30;99.90;;;;;;4996795;28;20171;-81
2022/12/10 07:05:34;;;;;;;185.70;38.50;;;0.30;99.90;;;;;;5001431;28;20648;-82
2022/12/10 07:07:59;;;;;;;134.53;35.30;;;0.20;99.90;;;;;;4997395;28;20174;-81
2022/12/10 07:10:25;;;;;;;96.07;34.60;;;0.20;99.90;;;;;;4995073;28;20195;-82
2022/12/10 07:12:51;;;;;;;105.23;36.07;;;0.00;99.90;;;;;;4978083;28;20182;-80
2022/12/10 07:15:16;;;;;;;108.67;35.57;;;-0.10;99.90;;;;;;4994282;28;20566;-79
2022/12/10 07:17:42;;;;;;;105.90;36.33;;;0.00;99.90;;;;;;4977171;28;20171;-81
2022/12/10 07:20:08;;;;;;;98.43;36.57;;;0.00;99.90;;;;;;4976707;28;20179;-81
2022/12/10 07:22:35;;;;;;;104.17;37.37;;;0.20;99.90;;;;;;4996230;28;20171;-79
2022/12/10 07:25:03;;;;;;;95.43;36.57;;;0.10;99.90;;;;;;4980537;28;20171;-79
2022/12/10 07:27:30;;;;;;;87.63;35.33;;;0.20;99.90;;;;;;4978048;28;20171;-82
2022/12/10 07:29:56;;;;;;;101.20;33.13;;;0.20;99.90;;;;;;4994885;28;20174;-83
2022/12/10 07:32:22;;;;;;;94.40;35.17;;;0.20;99.90;;;;;;4978279;28;20213;-80
2022/12/10 07:34:47;;;;;;;85.13;34.93;;;0.20;99.90;;;;;;4994844;28;20677;-82
2022/12/10 07:37:14;;;;;;;85.07;34.00;;;0.20;99.90;;;;;;4983116;28;20329;-81
2022/12/10 07:39:39;;;;;;;86.37;34.60;;;0.20;99.90;;;;;;4994736;28;20199;-80
2022/12/10 07:42:05;;;;;;;109.67;33.17;;;0.00;99.90;;;;;;4999902;28;20167;-79
2022/12/10 07:44:34;;;;;;;81.10;30.67;;;0.00;99.90;;;;;;5008476;28;20171;-80
2022/12/10 07:47:24;;;;;;;80.97;29.47;;;-0.10;99.90;;;;;;5000660;28;20627;-79
2022/12/10 07:50:05;;;;;;;78.67;30.50;;;-0.10;99.90;;;;;;4984504;28;20167;-80
2022/12/10 07:52:31;;;;;;;75.50;31.37;;;0.00;99.90;;;;;;4997559;28;20155;-81
2022/12/10 07:54:57;;;;;;;100.43;32.00;;;0.00;99.90;;;;;;4978046;28;20297;-81
2022/12/10 07:57:23;;;;;;;106.27;33.93;;;0.20;99.90;;;;;;4995545;28;20190;-78
2022/12/10 07:59:49;;;;;;;94.47;33.73;;;0.30;99.90;;;;;;5009563;28;20198;-79
2022/12/10 08:02:17;;;;;;;165.53;37.40;;;0.40;99.90;;;;;;4991102;28;20171;-80
2022/12/10 08:04:44;;;;;;;112.70;34.57;;;0.30;99.90;;;;;;4998510;28;20174;-80
2022/12/10 08:07:12;;;;;;;98.80;33.27;;;0.30;99.90;;;;;;4997975;28;20167;-78
2022/12/10 08:09:39;;;;;;;92.80;32.17;;;0.10;99.90;;;;;;5000306;28;20197;-78
2022/12/10 08:12:07;;;;;;;110.73;31.73;;;0.00;99.90;;;;;;4969958;28;20186;-82
2022/12/10 08:14:33;;;;;;;91.73;31.33;;;0.00;99.90;;;;;;4998566;28;20226;-81
2022/12/10 08:16:59;;;;;;;92.70;32.63;;;0.00;99.90;;;;;;4981781;28;20178;-81
2022/12/10 08:19:25;;;;;;;84.80;31.13;;;0.00;99.90;;;;;;5000814;28;20170;-79
2022/12/10 08:21:52;;;;;;;87.80;32.87;;;0.00;99.90;;;;;;4999038;28;20506;-83
2022/12/10 08:24:18;;;;;;;81.27;30.70;;;0.00;99.90;;;;;;4999278;28;20163;-81
2022/12/10 08:26:44;;;;;;;79.90;33.03;;;0.00;99.90;;;;;;5001082;28;20262;-81
2022/12/10 08:29:11;;;;;;;83.83;32.10;;;0.20;99.90;;;;;;5007656;28;20218;-83
2022/12/10 08:31:36;;;;;;;89.20;31.37;;;0.00;99.90;;;;;;5002621;28;20186;-81
2022/12/10 08:34:02;;;;;;;83.40;30.43;;;0.10;99.90;;;;;;5018180;28;20207;-81
2022/12/10 08:36:28;;;;;;;79.50;29.77;;;0.10;99.90;;;;;;5020820;28;20191;-82
2022/12/10 08:39:00;;;;;;;83.80;29.10;;;0.20;99.90;;;;;;5004262;28;20249;-82
2022/12/10 08:41:28;;;;;;;85.73;28.67;;;0.20;99.90;;;;;;4987772;28;20582;-82
2022/12/10 08:43:56;;;;;;;73.07;26.93;;;0.20;99.90;;;;;;4969878;28;20292;-80
2022/12/10 08:46:22;;;;;;;69.07;27.93;;;0.10;99.90;;;;;;4988451;28;20183;-81
2022/12/10 08:48:48;;;;;;;67.07;26.30;;;0.20;99.90;;;;;;5007753;28;20171;-82
2022/12/10 08:51:16;;;;;;;69.80;27.00;;;0.30;99.90;;;;;;4988657;28;20229;-80
2022/12/10 08:53:44;;;;;;;61.60;27.50;;;0.50;99.90;;;;;;4999002;28;20180;-81
2022/12/10 08:56:10;;;;;;;85.57;27.33;;;0.40;99.90;;;;;;5021245;28;20202;-83
2022/12/10 08:58:39;;;;;;;59.00;24.97;;;0.40;99.90;;;;;;4974440;28;20195;-81
2022/12/10 09:01:11;;;;;;;68.97;27.40;;;0.40;99.90;;;;;;4983051;28;20226;-81
2022/12/10 09:03:37;;;;;;;70.13;26.77;;;0.30;99.90;;;;;;4999644;28;20644;-82
2022/12/10 09:06:07;;;;;;;66.87;26.97;;;0.20;99.90;;;;;;4986960;28;20635;-85
2022/12/10 09:08:34;;;;;;;65.73;27.37;;;0.10;99.90;;;;;;5008620;28;20170;-80
2022/12/10 09:11:08;;;;;;;65.97;28.17;;;0.10;99.90;;;;;;5007400;28;20172;-83
2022/12/10 09:13:34;;;;;;;68.37;27.47;;;0.30;99.90;;;;;;5021554;28;20177;-84
2022/12/10 09:16:05;;;;;;;72.73;26.10;;;0.30;99.90;;;;;;5017727;28;20202;-84
2022/12/10 09:18:48;;;;;;;70.30;27.63;;;0.30;99.90;;;;;;4988112;28;20198;-82
2022/12/10 09:21:17;;;;;;;75.47;29.00;;;0.20;99.90;;;;;;5006759;28;20175;-84
2022/12/10 09:23:44;;;;;;;74.53;29.53;;;0.40;99.90;;;;;;5009273;28;20232;-80
2022/12/10 09:26:17;;;;;;;72.27;30.83;;;0.20;99.90;;;;;;5003075;28;20190;-81
2022/12/10 09:28:50;;;;;;;77.10;31.33;;;0.10;99.90;;;;;;5006411;28;20174;-80
2022/12/10 09:31:19;;;;;;;59.63;26.70;;;0.20;99.90;;;;;;5003560;28;20634;-79
2022/12/10 09:33:46;;;;;;;71.07;30.00;;;0.30;99.90;;;;;;5004197;28;20178;-81
2022/12/10 09:36:13;;;;;;;66.60;28.73;;;0.30;99.90;;;;;;5005464;28;20317;-82
2022/12/10 09:38:43;;;;;;;70.27;28.60;;;0.20;99.90;;;;;;5001324;28;20199;-81
2022/12/10 09:41:25;;;;;;;76.03;31.37;;;0.20;99.90;;;;;;5003599;28;20185;-80
2022/12/10 09:44:21;;;;;;;69.83;30.73;;;0.20;99.90;;;;;;5021194;28;20201;-81
2022/12/10 09:46:56;;;;;;;67.30;29.37;;;0.30;99.90;;;;;;5021255;28;20186;-83
2022/12/10 09:49:52;;;;;;;66.27;30.07;;;0.40;99.90;;;;;;5020781;28;20170;-82
2022/12/10 09:52:22;;;;;;;70.57;32.27;;;0.40;99.90;;;;;;5001988;28;20546;-82
2022/12/10 09:55:13;;;;;;;68.53;29.27;;;0.40;99.90;;;;;;5020454;28;20277;-82
2022/12/10 09:57:45;;;;;;;72.53;29.63;;;0.50;99.90;;;;;;4995953;28;20191;-82
2022/12/10 10:00:21;;;;;;;64.87;27.27;;;0.60;99.90;;;;;;4982964;28;20221;-80
2022/12/10 10:02:48;;;;;;;76.97;32.13;;;0.40;99.90;;;;;;5004262;28;20167;-79
2022/12/10 10:05:28;;;;;;;69.50;30.03;;;0.50;99.90;;;;;;4969382;28;20195;-84
2022/12/10 10:08:00;;;;;;;67.83;31.33;;;0.50;99.90;;;;;;5005432;28;20634;-82
2022/12/10 10:10:32;;;;;;;71.77;30.27;;;0.60;99.90;;;;;;5007318;28;20251;-81
2022/12/10 10:13:07;;;;;;;69.70;29.70;;;0.70;99.90;;;;;;5008619;28;20197;-82
2022/12/10 10:15:39;;;;;;;66.17;28.87;;;0.70;99.90;;;;;;5017027;28;20269;-78
2022/12/10 10:18:36;;;;;;;70.10;29.23;;;0.70;99.90;;;;;;5031890;28;20150;-81
2022/12/10 10:21:06;;;;;;;68.37;29.60;;;0.70;99.90;;;;;;5029315;28;20178;-80
2022/12/10 10:23:41;;;;;;;57.93;27.67;;;0.80;99.90;;;;;;5021707;28;20170;-81
2022/12/10 10:26:07;;;;;;;72.27;29.53;;;1.00;99.90;;;;;;5019943;28;20162;-82
2022/12/10 10:28:50;;;;;;;69.90;28.07;;;0.90;99.90;;;;;;5026206;28;20186;-86
2022/12/10 10:31:23;;;;;;;68.93;29.53;;;0.90;99.90;;;;;;5024082;28;20162;-82
2022/12/10 10:34:18;;;;;;;65.83;28.77;;;1.00;99.90;;;;;;4992901;28;20192;-82
2022/12/10 10:36:44;;;;;;;62.93;28.97;;;1.00;99.90;;;;;;4985256;28;20194;-81
2022/12/10 10:39:27;;;;;;;67.40;30.53;;;1.10;99.90;;;;;;4985815;28;20199;-82
2022/12/10 10:41:56;;;;;;;69.93;31.10;;;1.20;99.90;;;;;;4994422;28;20248;-82
2022/12/10 10:44:25;;;;;;;68.47;29.23;;;1.20;99.90;;;;;;5001831;28;20189;-81
2022/12/10 10:46:53;;;;;;;64.50;29.73;;;1.10;99.90;;;;;;5007475;28;20202;-83
2022/12/10 10:49:24;;;;;;;68.93;27.77;;;1.00;99.90;;;;;;5002655;28;20198;-82
2022/12/10 10:51:51;;;;;;;69.13;30.47;;;1.10;99.90;;;;;;4988490;28;20181;-77
2022/12/10 10:54:41;;;;;;;64.13;28.87;;;1.10;99.90;;;;;;5013720;28;20182;-83
2022/12/10 10:57:33;;;;;;;64.47;27.90;;;1.10;99.90;;;;;;4988746;28;20195;-80
2022/12/10 11:00:19;;;;;;;61.70;27.87;;;1.20;99.90;;;;;;5004162;28;20183;-81
2022/12/10 11:02:46;;;;;;;71.10;31.83;;;1.20;99.90;;;;;;4991278;28;20179;-83
2022/12/10 11:05:23;;;;;;;74.93;33.13;;;1.10;99.90;;;;;;5000804;28;20261;-82
2022/12/10 11:07:58;;;;;;;67.50;28.17;;;1.30;99.90;;;;;;4992619;28;20233;-83
2022/12/10 11:10:25;;;;;;;65.37;29.00;;;1.40;99.90;;;;;;5004448;28;20785;-83
2022/12/10 11:13:04;;;;;;;68.53;28.77;;;1.30;99.90;;;;;;5002617;28;20198;-81
2022/12/10 11:15:37;;;;;;;57.93;28.10;;;1.30;99.90;;;;;;5005866;28;20221;-80
2022/12/10 11:18:25;;;;;;;65.67;29.67;;;1.30;99.90;;;;;;5004333;28;20250;-80
2022/12/10 11:21:02;;;;;;;66.77;30.73;;;1.40;99.90;;;;;;5007209;28;20237;-80
2022/12/10 11:23:30;;;;;;;62.03;29.10;;;1.40;99.90;;;;;;5006163;28;20271;-81
2022/12/10 11:26:25;;;;;;;59.67;26.33;;;1.30;99.90;;;;;;4990082;28;20178;-83
2022/12/10 11:29:11;;;;;;;62.67;28.67;;;1.40;99.90;;;;;;4988642;28;20167;-81
2022/12/10 11:31:51;;;;;;;64.50;27.93;;;1.40;99.90;;;;;;4989939;28;20499;-80
2022/12/10 11:34:35;;;;;;;71.47;29.73;;;1.50;99.90;;;;;;5008280;28;20174;-80
2022/12/10 11:37:18;;;;;;;67.10;31.63;;;1.40;99.90;;;;;;5005535;28;20638;-82
2022/12/10 11:39:58;;;;;;;64.40;28.47;;;1.40;99.90;;;;;;5007000;28;20959;-83
2022/12/10 11:42:43;;;;;;;64.33;30.77;;;1.50;99.90;;;;;;5005262;28;20178;-80
2022/12/10 11:45:46;;;;;;;57.27;28.27;;;1.60;99.90;;;;;;5001134;28;20170;-82
2022/12/10 11:48:31;;;;;;;71.17;29.87;;;1.60;99.90;;;;;;4968022;28;20251;-82
2022/12/10 11:51:09;;;;;;;62.00;28.40;;;1.70;99.90;;;;;;4997511;28;20181;-83
2022/12/10 11:53:50;;;;;;;64.03;27.17;;;1.60;99.90;;;;;;4998455;28;20329;-83
2022/12/10 11:56:25;;;;;;;57.17;26.40;;;1.60;99.90;;;;;;5015575;28;20209;-82
2022/12/10 11:59:01;;;;;;;53.37;24.50;;;1.60;99.90;;;;;;4980872;28;20186;-84
2022/12/10 12:01:27;;;;;;;50.17;21.93;;;1.60;99.90;;;;;;4980000;28;20658;-84
2022/12/10 12:04:19;;;;;;;50.67;24.00;;;1.40;99.90;;;;;;4977562;28;20171;-82
2022/12/10 12:06:58;;;;;;;54.10;24.20;;;1.40;99.90;;;;;;4979429;28;20175;-83
2022/12/10 12:09:50;;;;;;;54.27;25.13;;;1.50;99.90;;;;;;4997681;28;20209;-82
2022/12/10 12:12:35;;;;;;;58.07;25.93;;;1.40;99.90;;;;;;4996763;28;20185;-79
2022/12/10 12:15:12;;;;;;;52.40;24.23;;;1.50;99.90;;;;;;5014998;28;20205;-80
2022/12/10 12:17:47;;;;;;;54.20;25.27;;;1.60;99.90;;;;;;5006282;28;20170;-80
2022/12/10 12:20:40;;;;;;;57.47;24.60;;;1.60;99.90;;;;;;5001926;28;20167;-82
2022/12/10 12:23:30;;;;;;;56.13;25.37;;;1.70;99.90;;;;;;4997173;28;20186;-80
2022/12/10 12:26:21;;;;;;;53.00;25.00;;;1.70;99.90;;;;;;5011110;28;20250;-79
2022/12/10 12:29:11;;;;;;;48.93;23.67;;;1.80;99.90;;;;;;5013874;28;20181;-79
2022/12/10 12:31:41;;;;;;;55.33;25.27;;;1.60;99.90;;;;;;5012736;28;20182;-79
2022/12/10 12:34:25;;;;;;;55.90;24.60;;;1.70;99.90;;;;;;5002121;28;20623;-80
2022/12/10 12:36:51;;;;;;;56.83;24.00;;;1.60;99.90;;;;;;4997631;28;20218;-80
2022/12/10 12:39:25;;;;;;;49.73;23.97;;;1.60;99.90;;;;;;4977787;28;20204;-78
2022/12/10 12:41:57;;;;;;;53.27;22.53;;;1.70;99.90;;;;;;4983351;28;20173;-85
2022/12/10 12:44:32;;;;;;;45.17;23.60;;;1.80;99.90;;;;;;4992615;28;20628;-82
2022/12/10 12:47:16;;;;;;;48.23;23.73;;;1.90;99.90;;;;;;5002226;28;20175;-76
2022/12/10 12:49:43;;;;;;;45.20;22.97;;;1.80;99.90;;;;;;5021010;28;20166;-79
2022/12/10 12:52:27;;;;;;;47.57;22.43;;;1.70;99.90;;;;;;5031820;28;20170;-78
2022/12/10 12:54:58;;;;;;;43.23;22.80;;;1.70;99.90;;;;;;4999515;28;20285;-79
2022/12/10 12:57:51;;;;;;;39.63;20.30;;;1.70;99.90;;;;;;4987848;28;20190;-81
2022/12/10 13:00:23;;;;;;;44.10;21.40;;;1.80;99.90;;;;;;4999836;28;20189;-81
2022/12/10 13:03:04;;;;;;;47.97;22.83;;;2.10;99.90;;;;;;4986095;28;20191;-80
2022/12/10 13:05:37;;;;;;;47.40;23.80;;;2.00;99.90;;;;;;4982764;28;20644;-81